»·PEaware :: SWA267 KLAS-KLAX

SWA267 :: KLAS-KLAX

FLIGHT INFORMATION

Flight Status: Arrived
Operator:
Southwest Airlines
More flights by this operator :: More flights under this callsign
Pilot: Alec D. (17934)
Aircraft: BOEING 737-700
(B737)
More flights by this aircraft type
Origin: KLAS McCarran Intl
United States
Destination: KLAX Los Angeles Intl
United States
More flights between these airports :: More routes between these airports
Route: BOACH8 RIKII SHTNR ANJLL4
File this flight plan on PilotEdge
Remarks:
Altitude:
(Current/Filed)
28,000ft
Speed:
(Current/Filed)
405kts
Departed: 07-Sep-18 04:21 PM
Arrived: 07-Sep-18 05:04 PM
Distance/Time
Traveled:
205nm/0:42
Distance/Time
To Go:
Arrived

Flight Plot

Page will automatically refresh every two minutes.

Flight plan parsing failed; only flown route is shown


Map Options




Map Legend


Flown Route
Filed Route
Departure Airport
Arrival Airport
Navaid (VOR, NDB)
Fix

Horizontal Profiles

Position Reports

Time Latitude Longitude Heading Altitude Ground
Speed
07-Sep-18 15:50 36.083144 -115.148898 62 2191ft 0kts
07-Sep-18 15:50 36.083144 -115.148898 62 2191ft 0kts
07-Sep-18 15:52 36.083144 -115.148898 62 2191ft 0kts
07-Sep-18 15:53 36.083144 -115.148898 62 2191ft 0kts
07-Sep-18 15:54 36.083144 -115.148898 62 2191ft 0kts
07-Sep-18 15:54 36.083144 -115.148898 62 2191ft 0kts
07-Sep-18 15:55 36.083144 -115.148898 62 2191ft 0kts
07-Sep-18 15:57 36.083144 -115.148898 62 2191ft 0kts
07-Sep-18 15:58 36.083144 -115.148898 62 2191ft 0kts
07-Sep-18 15:58 36.083144 -115.148898 62 2191ft 0kts
07-Sep-18 15:59 36.083144 -115.148898 62 2191ft 0kts
07-Sep-18 16:00 36.083144 -115.148898 62 2191ft 0kts
07-Sep-18 16:01 36.083144 -115.148898 62 2191ft 0kts
07-Sep-18 16:02 36.083144 -115.148898 62 2191ft 0kts
07-Sep-18 16:03 36.083144 -115.148898 62 2191ft 0kts
07-Sep-18 16:04 36.083144 -115.148898 62 2191ft 0kts
07-Sep-18 16:05 36.083144 -115.148898 62 2191ft 0kts
07-Sep-18 16:06 36.083144 -115.148898 62 2191ft 0kts
07-Sep-18 16:07 36.083020 -115.149200 62 2191ft 2kts
07-Sep-18 16:08 36.082961 -115.149341 62 2191ft 0kts
07-Sep-18 16:09 36.082961 -115.149341 62 2191ft 0kts
07-Sep-18 16:10 36.082961 -115.149341 62 2191ft 0kts
07-Sep-18 16:11 36.082961 -115.149341 62 2191ft 0kts
07-Sep-18 16:12 36.082955 -115.149244 120 2191ft 0kts
07-Sep-18 16:13 36.082243 -115.149619 220 2191ft 0kts
07-Sep-18 16:14 36.082237 -115.149625 220 2191ft 0kts
07-Sep-18 16:15 36.079084 -115.151009 180 2191ft 17kts
07-Sep-18 16:16 36.077935 -115.154947 271 2191ft 21kts
07-Sep-18 16:17 36.077940 -115.161382 269 2191ft 20kts
07-Sep-18 16:19 36.077134 -115.163451 203 2191ft 0kts
07-Sep-18 16:20 36.077129 -115.163454 203 2191ft 0kts
07-Sep-18 16:21 36.077124 -115.163457 203 2191ft 0kts
07-Sep-18 16:22 36.076655 -115.163704 201 2191ft 5kts
07-Sep-18 16:23 36.076340 -115.154398 89 2192ft 116kts
07-Sep-18 16:24 36.076806 -115.096570 90 4323ft 201kts
07-Sep-18 16:25 36.076512 -115.012807 91 7126ft 268kts
07-Sep-18 16:26 36.050785 -114.926759 151 8163ft 285kts
07-Sep-18 16:27 35.969047 -114.911692 189 11152ft 327kts
07-Sep-18 16:28 35.895460 -114.982195 225 14568ft 351kts
07-Sep-18 16:29 35.823771 -115.071264 226 17651ft 376kts
07-Sep-18 16:30 35.756741 -115.173920 233 19853ft 390kts
07-Sep-18 16:31 35.684857 -115.277066 217 22455ft 413kts
07-Sep-18 16:32 35.570668 -115.298897 182 23018ft 426kts
07-Sep-18 16:33 35.458895 -115.334808 215 23572ft 423kts
07-Sep-18 16:34 35.358340 -115.408801 214 26324ft 421kts
07-Sep-18 16:35 35.257833 -115.481650 214 27989ft 418kts
07-Sep-18 16:36 35.157315 -115.554288 214 28001ft 418kts
07-Sep-18 16:37 35.071444 -115.645927 230 28021ft 409kts
07-Sep-18 16:38 34.992447 -115.746874 230 28026ft 410kts
07-Sep-18 16:39 34.913559 -115.847310 230 28032ft 410kts
07-Sep-18 16:40 34.834538 -115.947624 230 28039ft 411kts
07-Sep-18 16:41 34.755356 -116.048054 230 28018ft 409kts
07-Sep-18 16:42 34.676807 -116.148088 230 28029ft 410kts
07-Sep-18 16:43 34.598134 -116.247978 230 28098ft 409kts
07-Sep-18 16:44 34.519106 -116.348027 229 28111ft 410kts
07-Sep-18 16:45 34.440220 -116.447599 229 28139ft 409kts
07-Sep-18 16:46 34.381625 -116.562603 247 28208ft 399kts
07-Sep-18 16:47 34.332098 -116.682868 247 26760ft 410kts
07-Sep-18 16:48 34.281798 -116.807990 247 24449ft 414kts
07-Sep-18 16:49 34.231444 -116.932755 247 21926ft 410kts
07-Sep-18 16:50 34.190568 -117.058939 255 19439ft 400kts
07-Sep-18 16:51 34.156234 -117.185390 253 16936ft 393kts
07-Sep-18 16:52 34.122015 -117.309668 252 14423ft 385kts
07-Sep-18 16:53 34.091627 -117.424748 253 13319ft 341kts
07-Sep-18 16:54 34.062107 -117.530495 245 11955ft 312kts
07-Sep-18 16:55 34.026756 -117.627610 246 9995ft 312kts
07-Sep-18 16:56 34.002772 -117.719466 264 9499ft 279kts
07-Sep-18 16:57 33.994276 -117.811823 262 8233ft 276kts
07-Sep-18 16:58 33.985325 -117.903900 263 6988ft 272kts
07-Sep-18 16:59 33.976398 -117.994532 263 5662ft 274kts
07-Sep-18 17:00 33.968166 -118.084259 263 4913ft 253kts
07-Sep-18 17:01 33.959831 -118.165238 263 3641ft 233kts
07-Sep-18 17:02 33.952637 -118.235244 264 2466ft 187kts
07-Sep-18 17:03 33.947027 -118.290268 265 1654ft 150kts
07-Sep-18 17:04 33.942165 -118.337139 263 873ft 137kts
07-Sep-18 17:05 33.937775 -118.381332 262 198ft 130kts
07-Sep-18 17:06 33.935996 -118.402118 290 136ft 17kts
07-Sep-18 17:07 33.936271 -118.402986 293 136ft 0kts
07-Sep-18 17:08 33.937943 -118.405198 347 136ft 0kts
07-Sep-18 17:09 33.938136 -118.407031 261 136ft 19kts
07-Sep-18 17:10 33.940316 -118.407532 84 136ft 0kts
07-Sep-18 17:11 33.940317 -118.407530 84 136ft 0kts
07-Sep-18 17:12 33.940317 -118.407530 84 136ft 0kts

Navigation Log

Ident Type
Flight plan parsing failed, navigation log unavailable